sensor_id;sensor_type;location;lat;lon;timestamp;pressure;altitude;pressure_sealevel;temperature;humidity
33697;BME280;20031;43.416;23.232;2022-08-21T00:02:25;99278.09;;;22.98;75.98
33697;BME280;20031;43.416;23.232;2022-08-21T00:04:52;99281.28;;;23.00;76.13
33697;BME280;20031;43.416;23.232;2022-08-21T00:07:20;99287.09;;;22.97;76.06
33697;BME280;20031;43.416;23.232;2022-08-21T00:09:46;99279.03;;;22.87;76.36
33697;BME280;20031;43.416;23.232;2022-08-21T00:12:12;99281.16;;;22.85;76.91
33697;BME280;20031;43.416;23.232;2022-08-21T00:14:37;99285.88;;;22.78;77.44
33697;BME280;20031;43.416;23.232;2022-08-21T00:17:04;99286.91;;;22.72;77.74
33697;BME280;20031;43.416;23.232;2022-08-21T00:19:30;99285.81;;;22.68;78.02
33697;BME280;20031;43.416;23.232;2022-08-21T00:21:56;99287.88;;;22.61;78.22
33697;BME280;20031;43.416;23.232;2022-08-21T00:24:22;99280.94;;;22.55;79.21
33697;BME280;20031;43.416;23.232;2022-08-21T00:26:48;99286.75;;;22.52;79.24
33697;BME280;20031;43.416;23.232;2022-08-21T00:29:14;99290.66;;;22.45;79.55
33697;BME280;20031;43.416;23.232;2022-08-21T00:31:41;99304.16;;;22.43;79.55
33697;BME280;20031;43.416;23.232;2022-08-21T00:34:08;99307.31;;;22.35;79.53
33697;BME280;20031;43.416;23.232;2022-08-21T00:36:35;99313.84;;;22.28;80.23
33697;BME280;20031;43.416;23.232;2022-08-21T00:39:02;99306.69;;;22.28;80.83
33697;BME280;20031;43.416;23.232;2022-08-21T00:41:27;99303.22;;;22.28;81.34
33697;BME280;20031;43.416;23.232;2022-08-21T00:43:54;99299.78;;;22.27;81.64
33697;BME280;20031;43.416;23.232;2022-08-21T00:46:20;99290.94;;;22.22;81.99
33697;BME280;20031;43.416;23.232;2022-08-21T00:48:45;99292.81;;;22.21;81.83
33697;BME280;20031;43.416;23.232;2022-08-21T00:51:16;99294.44;;;22.22;82.23
33697;BME280;20031;43.416;23.232;2022-08-21T00:53:47;99290.09;;;22.16;82.09
33697;BME280;20031;43.416;23.232;2022-08-21T00:56:14;99294.84;;;22.14;82.64
33697;BME280;20031;43.416;23.232;2022-08-21T00:58:41;99290.34;;;22.15;82.65
33697;BME280;20031;43.416;23.232;2022-08-21T01:01:08;99299.88;;;22.11;83.08
33697;BME280;20031;43.416;23.232;2022-08-21T01:03:35;99300.84;;;22.05;82.99
33697;BME280;20031;43.416;23.232;2022-08-21T01:06:01;99291.56;;;22.03;83.34
33697;BME280;20031;43.416;23.232;2022-08-21T01:08:28;99300.31;;;22.03;83.60
33697;BME280;20031;43.416;23.232;2022-08-21T01:10:54;99299.78;;;22.01;84.03
33697;BME280;20031;43.416;23.232;2022-08-21T01:13:21;99303.09;;;21.92;83.57
33697;BME280;20031;43.416;23.232;2022-08-21T01:15:50;99309.19;;;21.92;84.44
33697;BME280;20031;43.416;23.232;2022-08-21T01:18:19;99314.25;;;21.94;84.51
33697;BME280;20031;43.416;23.232;2022-08-21T01:21:06;99318.25;;;21.96;84.70
33697;BME280;20031;43.416;23.232;2022-08-21T01:23:33;99316.13;;;21.93;84.85
33697;BME280;20031;43.416;23.232;2022-08-21T01:25:59;99319.56;;;21.94;84.79
33697;BME280;20031;43.416;23.232;2022-08-21T01:28:26;99316.91;;;21.94;84.19
33697;BME280;20031;43.416;23.232;2022-08-21T01:30:53;99305.44;;;21.88;84.44
33697;BME280;20031;43.416;23.232;2022-08-21T01:33:22;99309.09;;;21.82;84.58
33697;BME280;20031;43.416;23.232;2022-08-21T01:35:50;99307.44;;;21.76;84.85
33697;BME280;20031;43.416;23.232;2022-08-21T01:38:15;99306.03;;;21.69;84.81
33697;BME280;20031;43.416;23.232;2022-08-21T01:40:41;99311.81;;;21.66;84.97
33697;BME280;20031;43.416;23.232;2022-08-21T01:43:06;99305.44;;;21.67;85.67
33697;BME280;20031;43.416;23.232;2022-08-21T01:45:32;99305.44;;;21.67;85.76
33697;BME280;20031;43.416;23.232;2022-08-21T01:47:57;99302.81;;;21.67;85.60
33697;BME280;20031;43.416;23.232;2022-08-21T01:50:23;99304.94;;;21.70;86.11
33697;BME280;20031;43.416;23.232;2022-08-21T01:52:50;99299.72;;;21.75;85.81
33697;BME280;20031;43.416;23.232;2022-08-21T01:55:16;99305.31;;;21.78;85.76
33697;BME280;20031;43.416;23.232;2022-08-21T01:57:43;99298.69;;;21.76;85.91
33697;BME280;20031;43.416;23.232;2022-08-21T02:00:13;99293.91;;;21.78;85.81
33697;BME280;20031;43.416;23.232;2022-08-21T02:02:39;99289.41;;;21.78;85.57
33697;BME280;20031;43.416;23.232;2022-08-21T02:05:06;99292.63;;;21.80;85.23
33697;BME280;20031;43.416;23.232;2022-08-21T02:07:43;99290.34;;;21.89;85.20
33697;BME280;20031;43.416;23.232;2022-08-21T02:10:12;99299.94;;;21.95;85.49
33697;BME280;20031;43.416;23.232;2022-08-21T02:12:38;99297.59;;;21.98;85.20
33697;BME280;20031;43.416;23.232;2022-08-21T02:15:05;99304.25;;;22.01;85.08
33697;BME280;20031;43.416;23.232;2022-08-21T02:17:44;99307.94;;;22.00;84.60
33697;BME280;20031;43.416;23.232;2022-08-21T02:20:20;99307.47;;;22.03;84.62
33697;BME280;20031;43.416;23.232;2022-08-21T02:22:46;99311.72;;;22.03;84.65
33697;BME280;20031;43.416;23.232;2022-08-21T02:25:12;99305.63;;;22.03;84.35
33697;BME280;20031;43.416;23.232;2022-08-21T02:27:40;99307.41;;;21.98;83.85
33697;BME280;20031;43.416;23.232;2022-08-21T02:30:07;99304.50;;;21.99;84.06
33697;BME280;20031;43.416;23.232;2022-08-21T02:32:33;99311.16;;;22.02;84.21
33697;BME280;20031;43.416;23.232;2022-08-21T02:34:58;99306.88;;;21.96;83.44
33697;BME280;20031;43.416;23.232;2022-08-21T02:37:24;99306.88;;;21.96;83.72
33697;BME280;20031;43.416;23.232;2022-08-21T02:39:49;99304.22;;;21.96;83.43
33697;BME280;20031;43.416;23.232;2022-08-21T02:42:15;99303.47;;;22.00;83.64
33697;BME280;20031;43.416;23.232;2022-08-21T02:44:41;99291.06;;;22.05;83.53
33697;BME280;20031;43.416;23.232;2022-08-21T02:47:06;99286.81;;;22.09;83.55
33697;BME280;20031;43.416;23.232;2022-08-21T02:49:32;99288.44;;;22.10;83.48
33697;BME280;20031;43.416;23.232;2022-08-21T02:51:57;99285.78;;;22.10;83.33
33697;BME280;20031;43.416;23.232;2022-08-21T02:54:23;99284.75;;;22.11;83.38
33697;BME280;20031;43.416;23.232;2022-08-21T02:56:48;99287.06;;;22.08;82.62
33697;BME280;20031;43.416;23.232;2022-08-21T02:59:14;99293.22;;;22.08;82.99
33697;BME280;20031;43.416;23.232;2022-08-21T03:01:39;99286.53;;;22.06;83.18
33697;BME280;20031;43.416;23.232;2022-08-21T03:04:05;99292.09;;;22.04;83.07
33697;BME280;20031;43.416;23.232;2022-08-21T03:06:30;99280.19;;;22.07;83.25
33697;BME280;20031;43.416;23.232;2022-08-21T03:08:56;99273.28;;;22.06;82.93
33697;BME280;20031;43.416;23.232;2022-08-21T03:11:22;99273.53;;;22.04;83.13
33697;BME280;20031;43.416;23.232;2022-08-21T03:13:48;99275.06;;;22.01;82.77
33697;BME280;20031;43.416;23.232;2022-08-21T03:16:13;99273.19;;;21.96;83.09
33697;BME280;20031;43.416;23.232;2022-08-21T03:18:40;99285.91;;;21.94;83.42
33697;BME280;20031;43.416;23.232;2022-08-21T03:21:05;99275.03;;;21.96;82.82
33697;BME280;20031;43.416;23.232;2022-08-21T03:23:31;99284.31;;;21.98;82.82
33697;BME280;20031;43.416;23.232;2022-08-21T03:25:57;99287.81;;;21.99;83.01
33697;BME280;20031;43.416;23.232;2022-08-21T03:28:23;99290.19;;;22.00;82.89
33697;BME280;20031;43.416;23.232;2022-08-21T03:30:51;99302.09;;;21.98;82.33
33697;BME280;20031;43.416;23.232;2022-08-21T03:33:17;99304.72;;;21.93;81.92
33697;BME280;20031;43.416;23.232;2022-08-21T03:35:45;99309.44;;;21.91;82.03
33697;BME280;20031;43.416;23.232;2022-08-21T03:38:12;99314.75;;;21.91;81.89
33697;BME280;20031;43.416;23.232;2022-08-21T03:40:42;99318.81;;;21.77;81.92
33697;BME280;20031;43.416;23.232;2022-08-21T03:43:08;99315.00;;;21.68;82.19
33697;BME280;20031;43.416;23.232;2022-08-21T03:45:35;99325.31;;;21.64;81.91
33697;BME280;20031;43.416;23.232;2022-08-21T03:48:03;99328.69;;;21.60;82.45
33697;BME280;20031;43.416;23.232;2022-08-21T03:50:32;99326.78;;;21.55;82.36
33697;BME280;20031;43.416;23.232;2022-08-21T03:52:58;99333.69;;;21.56;82.32
33697;BME280;20031;43.416;23.232;2022-08-21T03:55:24;99332.91;;;21.56;82.80
33697;BME280;20031;43.416;23.232;2022-08-21T03:57:51;99330.31;;;21.61;82.64
33697;BME280;20031;43.416;23.232;2022-08-21T04:00:18;99331.41;;;21.65;82.05
33697;BME280;20031;43.416;23.232;2022-08-21T04:02:44;99325.50;;;21.58;81.98
33697;BME280;20031;43.416;23.232;2022-08-21T04:05:11;99323.84;;;21.52;82.21
33697;BME280;20031;43.416;23.232;2022-08-21T04:07:37;99324.72;;;21.41;81.61
33697;BME280;20031;43.416;23.232;2022-08-21T04:10:06;99319.16;;;21.43;82.25
33697;BME280;20031;43.416;23.232;2022-08-21T04:12:32;99315.81;;;21.47;82.24
33697;BME280;20031;43.416;23.232;2022-08-21T04:14:57;99308.47;;;21.54;81.37
33697;BME280;20031;43.416;23.232;2022-08-21T04:17:23;99313.28;;;21.57;81.45
33697;BME280;20031;43.416;23.232;2022-08-21T04:19:48;99320.81;;;21.65;81.41
33697;BME280;20031;43.416;23.232;2022-08-21T04:22:15;99321.44;;;21.72;81.10
33697;BME280;20031;43.416;23.232;2022-08-21T04:24:40;99315.63;;;21.75;80.48
33697;BME280;20031;43.416;23.232;2022-08-21T04:27:06;99311.13;;;21.75;80.04
33697;BME280;20031;43.416;23.232;2022-08-21T04:29:31;99307.94;;;21.73;80.03
33697;BME280;20031;43.416;23.232;2022-08-21T04:31:57;99322.06;;;21.79;79.73
33697;BME280;20031;43.416;23.232;2022-08-21T04:34:22;99317.38;;;21.86;80.11
33697;BME280;20031;43.416;23.232;2022-08-21T04:36:47;99316.28;;;21.87;79.75
33697;BME280;20031;43.416;23.232;2022-08-21T04:39:13;99312.16;;;21.96;80.03
33697;BME280;20031;43.416;23.232;2022-08-21T04:41:38;99310.66;;;22.04;79.58
33697;BME280;20031;43.416;23.232;2022-08-21T04:44:04;99306.72;;;22.07;79.16
33697;BME280;20031;43.416;23.232;2022-08-21T04:46:30;99309.47;;;22.17;79.29
33697;BME280;20031;43.416;23.232;2022-08-21T04:48:56;99307.22;;;22.25;78.41
33697;BME280;20031;43.416;23.232;2022-08-21T04:51:29;99306.38;;;22.25;78.32
33697;BME280;20031;43.416;23.232;2022-08-21T04:54:02;99300.94;;;22.15;78.21
33697;BME280;20031;43.416;23.232;2022-08-21T04:56:37;99295.63;;;22.15;78.56
33697;BME280;20031;43.416;23.232;2022-08-21T04:59:12;99285.41;;;22.23;78.16
33697;BME280;20031;43.416;23.232;2022-08-21T05:01:39;99296.13;;;22.33;77.77
33697;BME280;20031;43.416;23.232;2022-08-21T05:04:08;99291.97;;;22.42;77.48
33697;BME280;20031;43.416;23.232;2022-08-21T05:06:36;99299.78;;;22.54;76.59
33697;BME280;20031;43.416;23.232;2022-08-21T05:09:05;99292.16;;;22.67;76.87
33697;BME280;20031;43.416;23.232;2022-08-21T05:11:31;99302.53;;;22.68;75.69
33697;BME280;20031;43.416;23.232;2022-08-21T05:13:57;99295.91;;;22.71;75.45
33697;BME280;20031;43.416;23.232;2022-08-21T05:16:23;99293.59;;;22.79;75.47
33697;BME280;20031;43.416;23.232;2022-08-21T05:18:50;99286.06;;;22.98;75.10
33697;BME280;20031;43.416;23.232;2022-08-21T05:21:16;99284.56;;;23.16;74.66
33697;BME280;20031;43.416;23.232;2022-08-21T05:23:41;99279.56;;;23.30;73.98
33697;BME280;20031;43.416;23.232;2022-08-21T05:26:08;99284.09;;;23.29;73.24
33697;BME280;20031;43.416;23.232;2022-08-21T05:28:33;99283.34;;;23.39;73.33
33697;BME280;20031;43.416;23.232;2022-08-21T05:30:59;99290.88;;;23.57;72.75
33697;BME280;20031;43.416;23.232;2022-08-21T05:33:24;99282.19;;;23.81;72.49
33697;BME280;20031;43.416;23.232;2022-08-21T05:35:53;99291.28;;;23.90;71.39
33697;BME280;20031;43.416;23.232;2022-08-21T05:38:21;99277.72;;;23.91;71.21
33697;BME280;20031;43.416;23.232;2022-08-21T05:40:46;99280.91;;;23.93;70.70
33697;BME280;20031;43.416;23.232;2022-08-21T05:43:12;99269.47;;;23.88;70.51
33697;BME280;20031;43.416;23.232;2022-08-21T05:45:38;99279.84;;;23.89;70.47
33697;BME280;20031;43.416;23.232;2022-08-21T05:48:10;99277.47;;;23.93;70.25
33697;BME280;20031;43.416;23.232;2022-08-21T05:50:36;99271.28;;;23.72;70.80
33697;BME280;20031;43.416;23.232;2022-08-21T05:53:03;99271.03;;;23.79;70.37
33697;BME280;20031;43.416;23.232;2022-08-21T05:55:29;99265.75;;;23.89;70.76
33697;BME280;20031;43.416;23.232;2022-08-21T05:57:54;99265.25;;;24.07;70.77
33697;BME280;20031;43.416;23.232;2022-08-21T06:00:20;99263.94;;;24.24;70.26
33697;BME280;20031;43.416;23.232;2022-08-21T06:02:48;99258.09;;;24.42;69.53
33697;BME280;20031;43.416;23.232;2022-08-21T06:05:16;99256.53;;;24.51;68.00
33697;BME280;20031;43.416;23.232;2022-08-21T06:07:43;99260.00;;;24.56;67.59
33697;BME280;20031;43.416;23.232;2022-08-21T06:10:08;99257.81;;;24.88;68.00
33697;BME280;20031;43.416;23.232;2022-08-21T06:12:34;99258.28;;;25.19;67.44
33697;BME280;20031;43.416;23.232;2022-08-21T06:14:59;99253.91;;;25.53;65.93
33697;BME280;20031;43.416;23.232;2022-08-21T06:17:25;99255.41;;;25.84;64.71
33697;BME280;20031;43.416;23.232;2022-08-21T06:19:52;99254.78;;;25.97;63.40
33697;BME280;20031;43.416;23.232;2022-08-21T06:22:18;99256.25;;;26.18;63.10
33697;BME280;20031;43.416;23.232;2022-08-21T06:24:43;99251.97;;;26.17;62.52
33697;BME280;20031;43.416;23.232;2022-08-21T06:27:09;99260.56;;;26.09;62.39
33697;BME280;20031;43.416;23.232;2022-08-21T06:29:34;99258.66;;;26.14;62.80
33697;BME280;20031;43.416;23.232;2022-08-21T06:32:00;99263.41;;;26.60;62.08
33697;BME280;20031;43.416;23.232;2022-08-21T06:34:26;99260.50;;;26.85;61.51
33697;BME280;20031;43.416;23.232;2022-08-21T06:36:52;99251.34;;;26.96;60.41
33697;BME280;20031;43.416;23.232;2022-08-21T06:39:17;99255.66;;;26.92;60.54
33697;BME280;20031;43.416;23.232;2022-08-21T06:41:43;99254.03;;;26.96;60.78
33697;BME280;20031;43.416;23.232;2022-08-21T06:44:09;99256.13;;;27.22;60.26
33697;BME280;20031;43.416;23.232;2022-08-21T06:46:35;99261.69;;;27.49;59.48
33697;BME280;20031;43.416;23.232;2022-08-21T06:49:00;99259.81;;;27.73;58.60
33697;BME280;20031;43.416;23.232;2022-08-21T06:51:26;99265.25;;;27.86;58.31
33697;BME280;20031;43.416;23.232;2022-08-21T06:53:53;99264.03;;;27.97;57.04
33697;BME280;20031;43.416;23.232;2022-08-21T06:56:19;99273.94;;;27.96;57.43
33697;BME280;20031;43.416;23.232;2022-08-21T06:58:45;99269.41;;;28.15;56.65
33697;BME280;20031;43.416;23.232;2022-08-21T07:01:10;99271.19;;;28.38;56.74
33697;BME280;20031;43.416;23.232;2022-08-21T07:03:38;99264.06;;;28.47;56.05
33697;BME280;20031;43.416;23.232;2022-08-21T07:06:06;99274.84;;;28.92;55.50
33697;BME280;20031;43.416;23.232;2022-08-21T07:08:32;99267.81;;;29.09;54.52
33697;BME280;20031;43.416;23.232;2022-08-21T07:11:00;99273.19;;;29.09;54.83
33697;BME280;20031;43.416;23.232;2022-08-21T07:13:26;99272.41;;;28.95;53.89
33697;BME280;20031;43.416;23.232;2022-08-21T07:15:52;99272.22;;;28.74;54.38
33697;BME280;20031;43.416;23.232;2022-08-21T07:18:17;99277.19;;;28.48;55.13
33697;BME280;20031;43.416;23.232;2022-08-21T07:20:43;99275.19;;;28.40;56.11
33697;BME280;20031;43.416;23.232;2022-08-21T07:23:40;99274.59;;;28.43;55.44
33697;BME280;20031;43.416;23.232;2022-08-21T07:26:05;99275.97;;;28.41;55.50
33697;BME280;20031;43.416;23.232;2022-08-21T07:28:31;99273.88;;;28.38;55.93
33697;BME280;20031;43.416;23.232;2022-08-21T07:30:58;99277.06;;;28.40;55.83
33697;BME280;20031;43.416;23.232;2022-08-21T07:33:25;99271.94;;;28.57;55.13
33697;BME280;20031;43.416;23.232;2022-08-21T07:35:52;99280.81;;;28.57;55.71
33697;BME280;20031;43.416;23.232;2022-08-21T07:38:17;99267.81;;;28.64;54.67
33697;BME280;20031;43.416;23.232;2022-08-21T07:40:45;99274.50;;;28.48;55.36
33697;BME280;20031;43.416;23.232;2022-08-21T07:43:10;99268.47;;;28.75;55.56
33697;BME280;20031;43.416;23.232;2022-08-21T07:45:36;99262.19;;;29.11;55.39
33697;BME280;20031;43.416;23.232;2022-08-21T07:48:03;99263.06;;;29.20;55.40
33697;BME280;20031;43.416;23.232;2022-08-21T07:50:28;99267.09;;;28.90;55.50
33697;BME280;20031;43.416;23.232;2022-08-21T07:52:54;99258.97;;;28.64;55.40
33697;BME280;20031;43.416;23.232;2022-08-21T07:55:20;99254.75;;;28.44;55.53
33697;BME280;20031;43.416;23.232;2022-08-21T07:57:47;99262.66;;;28.36;54.32
33697;BME280;20031;43.416;23.232;2022-08-21T08:00:15;99261.88;;;28.17;55.54
33697;BME280;20031;43.416;23.232;2022-08-21T08:02:44;99261.94;;;28.31;56.20
33697;BME280;20031;43.416;23.232;2022-08-21T08:05:11;99256.09;;;28.92;55.50
33697;BME280;20031;43.416;23.232;2022-08-21T08:07:37;99253.50;;;29.00;53.76
33697;BME280;20031;43.416;23.232;2022-08-21T08:10:06;99257.38;;;29.08;54.45
33697;BME280;20031;43.416;23.232;2022-08-21T08:12:33;99256.78;;;28.84;54.24
33697;BME280;20031;43.416;23.232;2022-08-21T08:15:00;99253.75;;;28.72;55.79
33697;BME280;20031;43.416;23.232;2022-08-21T08:17:26;99257.03;;;28.69;55.71
33697;BME280;20031;43.416;23.232;2022-08-21T08:19:52;99256.91;;;29.06;56.08
33697;BME280;20031;43.416;23.232;2022-08-21T08:22:20;99257.97;;;29.05;55.68
33697;BME280;20031;43.416;23.232;2022-08-21T08:24:47;99255.06;;;29.46;55.42
33697;BME280;20031;43.416;23.232;2022-08-21T08:27:14;99251.13;;;29.79;53.63
33697;BME280;20031;43.416;23.232;2022-08-21T08:29:39;99259.41;;;30.18;53.73
33697;BME280;20031;43.416;23.232;2022-08-21T08:32:05;99252.81;;;30.24;52.05
33697;BME280;20031;43.416;23.232;2022-08-21T08:34:35;99251.88;;;30.28;51.89
33697;BME280;20031;43.416;23.232;2022-08-21T08:37:02;99249.09;;;30.55;50.94
33697;BME280;20031;43.416;23.232;2022-08-21T08:39:28;99252.56;;;30.77;50.59
33697;BME280;20031;43.416;23.232;2022-08-21T08:42:08;99253.91;;;31.18;49.45
33697;BME280;20031;43.416;23.232;2022-08-21T08:44:43;99253.50;;;31.42;47.73
33697;BME280;20031;43.416;23.232;2022-08-21T08:47:16;99247.84;;;31.51;48.22
33697;BME280;20031;43.416;23.232;2022-08-21T08:49:52;99235.84;;;31.74;47.79
33697;BME280;20031;43.416;23.232;2022-08-21T08:52:28;99232.91;;;32.09;47.50
33697;BME280;20031;43.416;23.232;2022-08-21T08:55:05;99229.41;;;32.17;46.68
33697;BME280;20031;43.416;23.232;2022-08-21T08:57:32;99234.47;;;32.36;46.63
33697;BME280;20031;43.416;23.232;2022-08-21T09:00:01;99228.28;;;31.93;46.11
33697;BME280;20031;43.416;23.232;2022-08-21T09:02:28;99241.78;;;31.38;47.54
33697;BME280;20031;43.416;23.232;2022-08-21T09:04:54;99235.66;;;31.46;47.74
33697;BME280;20031;43.416;23.232;2022-08-21T09:07:40;99226.41;;;32.02;46.40
33697;BME280;20031;43.416;23.232;2022-08-21T09:12:56;99220.25;;;32.89;43.75
33697;BME280;20031;43.416;23.232;2022-08-21T09:15:52;99217.16;;;33.45;42.70
33697;BME280;20031;43.416;23.232;2022-08-21T09:18:43;99210.59;;;33.54;42.77
33697;BME280;20031;43.416;23.232;2022-08-21T09:29:35;99209.09;;;31.86;44.52
33697;BME280;20031;43.416;23.232;2022-08-21T09:32:03;99201.19;;;32.06;44.43
33697;BME280;20031;43.416;23.232;2022-08-21T09:34:34;99196.09;;;32.30;45.29
33697;BME280;20031;43.416;23.232;2022-08-21T09:37:01;99196.34;;;32.71;45.24
33697;BME280;20031;43.416;23.232;2022-08-21T09:39:32;99202.94;;;32.99;44.20
33697;BME280;20031;43.416;23.232;2022-08-21T09:42:07;99200.69;;;33.09;43.70
33697;BME280;20031;43.416;23.232;2022-08-21T09:44:36;99204.06;;;32.89;43.57
33697;BME280;20031;43.416;23.232;2022-08-21T09:47:07;99200.41;;;32.85;43.55
33697;BME280;20031;43.416;23.232;2022-08-21T09:49:36;99195.44;;;32.50;44.50
33697;BME280;20031;43.416;23.232;2022-08-21T09:52:04;99196.88;;;32.14;45.07
33697;BME280;20031;43.416;23.232;2022-08-21T09:54:38;99198.94;;;31.66;46.00
33697;BME280;20031;43.416;23.232;2022-08-21T09:57:14;99197.03;;;31.11;48.13
33697;BME280;20031;43.416;23.232;2022-08-21T10:00:30;99193.31;;;30.91;48.76
33697;BME280;20031;43.416;23.232;2022-08-21T10:03:16;99186.75;;;31.22;47.65
33697;BME280;20031;43.416;23.232;2022-08-21T10:06:05;99189.75;;;31.03;48.07
33697;BME280;20031;43.416;23.232;2022-08-21T10:08:34;99189.88;;;30.46;48.54
33697;BME280;20031;43.416;23.232;2022-08-21T10:11:13;99184.88;;;30.32;49.57
33697;BME280;20031;43.416;23.232;2022-08-21T10:16:47;99182.03;;;30.50;49.56
33697;BME280;20031;43.416;23.232;2022-08-21T10:19:26;99172.09;;;30.59;49.08
33697;BME280;20031;43.416;23.232;2022-08-21T10:27:50;99164.16;;;31.31;47.79
33697;BME280;20031;43.416;23.232;2022-08-21T10:33:04;99165.78;;;31.74;46.50
33697;BME280;20031;43.416;23.232;2022-08-21T10:35:41;99168.19;;;31.50;47.08
33697;BME280;20031;43.416;23.232;2022-08-21T10:38:17;99159.84;;;31.30;46.81
33697;BME280;20031;43.416;23.232;2022-08-21T10:41:21;99159.53;;;31.32;47.82
33697;BME280;20031;43.416;23.232;2022-08-21T10:46:54;99154.16;;;31.15;47.56
33697;BME280;20031;43.416;23.232;2022-08-21T10:55:04;99141.41;;;32.21;45.91
33697;BME280;20031;43.416;23.232;2022-08-21T11:00:26;99134.88;;;32.14;44.76
33697;BME280;20031;43.416;23.232;2022-08-21T11:02:55;99131.91;;;31.90;45.14
33697;BME280;20031;43.416;23.232;2022-08-21T11:05:31;99132.53;;;31.87;45.15
33697;BME280;20031;43.416;23.232;2022-08-21T11:13:19;99117.06;;;32.84;43.27
33697;BME280;20031;43.416;23.232;2022-08-21T11:19:09;99106.97;;;33.30;42.09
33697;BME280;20031;43.416;23.232;2022-08-21T11:24:48;99095.97;;;33.75;40.98
33697;BME280;20031;43.416;23.232;2022-08-21T11:29:55;99090.84;;;34.14;40.86
33697;BME280;20031;43.416;23.232;2022-08-21T11:32:41;99079.94;;;34.23;40.38
33697;BME280;20031;43.416;23.232;2022-08-21T11:38:05;99068.16;;;34.63;39.48
33697;BME280;20031;43.416;23.232;2022-08-21T11:43:43;99064.19;;;35.08;39.29
33697;BME280;20031;43.416;23.232;2022-08-21T11:51:24;99055.06;;;35.01;39.11
33697;BME280;20031;43.416;23.232;2022-08-21T11:54:06;99053.69;;;34.83;39.21
33697;BME280;20031;43.416;23.232;2022-08-21T11:56:37;99054.16;;;34.85;40.06
33697;BME280;20031;43.416;23.232;2022-08-21T11:59:15;99048.41;;;34.63;39.62
33697;BME280;20031;43.416;23.232;2022-08-21T12:01:45;99051.88;;;34.27;40.54
33697;BME280;20031;43.416;23.232;2022-08-21T12:04:28;99044.06;;;33.82;40.82
33697;BME280;20031;43.416;23.232;2022-08-21T12:06:54;99046.47;;;33.43;41.71
33697;BME280;20031;43.416;23.232;2022-08-21T12:14:43;99052.91;;;32.15;44.08
33697;BME280;20031;43.416;23.232;2022-08-21T12:17:18;99052.94;;;31.98;44.17
33697;BME280;20031;43.416;23.232;2022-08-21T12:19:44;99042.94;;;32.53;43.61
33697;BME280;20031;43.416;23.232;2022-08-21T12:22:12;99045.03;;;32.76;43.26
33697;BME280;20031;43.416;23.232;2022-08-21T12:24:44;99039.56;;;32.64;43.53
33697;BME280;20031;43.416;23.232;2022-08-21T12:29:48;99051.38;;;32.43;43.80
33697;BME280;20031;43.416;23.232;2022-08-21T12:34:51;99040.59;;;32.43;43.59
33697;BME280;20031;43.416;23.232;2022-08-21T12:37:43;99045.13;;;32.88;43.25
33697;BME280;20031;43.416;23.232;2022-08-21T12:40:22;99045.22;;;33.49;42.47
33697;BME280;20031;43.416;23.232;2022-08-21T12:42:51;99040.69;;;34.17;41.24
33697;BME280;20031;43.416;23.232;2022-08-21T12:45:32;99044.69;;;34.67;39.90
33697;BME280;20031;43.416;23.232;2022-08-21T12:50:46;99042.25;;;35.64;38.07
33697;BME280;20031;43.416;23.232;2022-08-21T12:55:47;99042.50;;;35.86;37.51
33697;BME280;20031;43.416;23.232;2022-08-21T12:58:23;99040.25;;;35.88;37.96
33697;BME280;20031;43.416;23.232;2022-08-21T13:01:00;99028.06;;;35.82;36.33
33697;BME280;20031;43.416;23.232;2022-08-21T13:03:26;99027.16;;;35.12;38.57
33697;BME280;20031;43.416;23.232;2022-08-21T13:05:53;99023.38;;;34.65;38.65
33697;BME280;20031;43.416;23.232;2022-08-21T13:08:21;99032.63;;;34.41;38.98
33697;BME280;20031;43.416;23.232;2022-08-21T13:10:57;99023.63;;;34.61;39.21
33697;BME280;20031;43.416;23.232;2022-08-21T13:13:26;99018.09;;;34.57;39.40
33697;BME280;20031;43.416;23.232;2022-08-21T13:15:58;99026.56;;;34.44;40.21
33697;BME280;20031;43.416;23.232;2022-08-21T13:18:28;99022.25;;;34.55;38.92
33697;BME280;20031;43.416;23.232;2022-08-21T13:21:13;99016.03;;;34.30;39.12
33697;BME280;20031;43.416;23.232;2022-08-21T13:23:39;99013.56;;;33.93;40.64
33697;BME280;20031;43.416;23.232;2022-08-21T13:26:15;99014.69;;;33.80;40.67
33697;BME280;20031;43.416;23.232;2022-08-21T13:28:40;99014.44;;;33.73;40.75
33697;BME280;20031;43.416;23.232;2022-08-21T13:31:08;99010.13;;;33.40;42.17
33697;BME280;20031;43.416;23.232;2022-08-21T13:33:39;99008.00;;;33.46;41.42
33697;BME280;20031;43.416;23.232;2022-08-21T13:36:14;99004.84;;;33.44;41.40
33697;BME280;20031;43.416;23.232;2022-08-21T13:38:44;99002.28;;;33.27;41.52
33697;BME280;20031;43.416;23.232;2022-08-21T13:41:21;99012.22;;;33.14;40.74
33697;BME280;20031;43.416;23.232;2022-08-21T13:44:05;99006.94;;;33.38;41.36
33697;BME280;20031;43.416;23.232;2022-08-21T13:46:34;99001.44;;;33.35;40.84
33697;BME280;20031;43.416;23.232;2022-08-21T13:49:02;99002.91;;;33.12;41.64
33697;BME280;20031;43.416;23.232;2022-08-21T13:51:30;99005.81;;;32.78;42.48
33697;BME280;20031;43.416;23.232;2022-08-21T13:53:56;99005.22;;;32.36;41.75
33697;BME280;20031;43.416;23.232;2022-08-21T13:56:31;98995.84;;;32.04;42.50
33697;BME280;20031;43.416;23.232;2022-08-21T13:58:58;98993.94;;;32.05;42.81
33697;BME280;20031;43.416;23.232;2022-08-21T14:04:16;98997.66;;;31.67;44.09
33697;BME280;20031;43.416;23.232;2022-08-21T14:06:44;98994.41;;;31.45;44.34
33697;BME280;20031;43.416;23.232;2022-08-21T14:09:13;98994.38;;;31.11;44.73
33697;BME280;20031;43.416;23.232;2022-08-21T14:11:44;99016.78;;;30.73;46.27
33697;BME280;20031;43.416;23.232;2022-08-21T14:14:39;99013.44;;;29.68;49.20
33697;BME280;20031;43.416;23.232;2022-08-21T14:17:07;99023.47;;;28.57;52.03
33697;BME280;20031;43.416;23.232;2022-08-21T14:19:44;99028.81;;;27.85;53.52